Anselmo, Nebraska
Current Conditions -  °F | °C
As of 8:53 PM on Wednesday 26 Nov 2014 (Local Time) from KBBW Reporting Station
Overcast Overcast  
Wind Chill: -4°   Ceiling: 11000
Heat Index: -4°   Visibility: 10mi
Dew Point: -8°   Wind: 0mph
Humidity: 75%   Direction: NA
Pressure: 30.38"   Gusts: NA
Location:  41.62°N, 99.87°W
Report Text: KBBW 270253Z AUTO 00000KT 10SM OVC110 M04/M08 A3038 RMK AO2 SLP318 T10441083 52017
Loading
Personal Weather Stations






























Interactive Weather Map New forecast layout! Learn more

10-Day Weather Forecast

Advertisements
Track Severe Weather on mobile